Time;durP1;ratioP1;P1;durP2;ratioP2;P2;SDS_P1;SDS_P2;PMS_P1;PMS_P2;Temp;Humidity;BMP_temperature;BMP_pressure;BME280_temperature;BME280_humidity;BME280_pressure;Samples;Min_cycle;Max_cycle;Signal;HPM_P1;HPM_P2
2023/10/31 00:01:38;;;;;;;72.50;65.70;;;;;;;;;;5041112;28;25078;-63
2023/10/31 00:04:04;;;;;;;74.35;66.85;;;;;;;;;;5035750;28;25108;-64
2023/10/31 00:06:30;;;;;;;72.50;65.90;;;;;;;;;;5040102;28;25156;-64
2023/10/31 00:08:56;;;;;;;72.95;65.90;;;;;;;;;;5040443;28;25059;-64
2023/10/31 00:11:22;;;;;;;73.30;66.55;;;;;;;;;;5037990;28;25135;-63
2023/10/31 00:13:48;;;;;;;68.97;62.55;;;;;;;;;;5035764;28;25065;-64
2023/10/31 00:16:14;;;;;;;69.78;63.33;;;;;;;;;;5032362;28;25069;-63
2023/10/31 00:18:40;;;;;;;66.40;60.85;;;;;;;;;;5036678;28;25059;-62
2023/10/31 00:21:06;;;;;;;66.55;60.55;;;;;;;;;;5033541;28;25071;-62
2023/10/31 00:23:32;;;;;;;68.40;62.05;;;;;;;;;;5039227;28;25060;-64
2023/10/31 00:25:58;;;;;;;68.00;61.88;;;;;;;;;;5037090;28;25049;-62
2023/10/31 00:28:24;;;;;;;65.38;59.35;;;;;;;;;;5037438;28;25066;-62
2023/10/31 00:30:50;;;;;;;69.45;62.15;;;;;;;;;;5039997;28;25069;-63
2023/10/31 00:33:16;;;;;;;64.97;59.13;;;;;;;;;;5038512;28;25088;-62
2023/10/31 00:35:42;;;;;;;67.30;61.15;;;;;;;;;;5040202;28;25072;-62
2023/10/31 00:38:08;;;;;;;66.88;60.47;;;;;;;;;;5036435;28;25062;-62
2023/10/31 00:40:34;;;;;;;67.32;60.50;;;;;;;;;;5042251;28;25077;-63
2023/10/31 00:43:00;;;;;;;66.82;60.20;;;;;;;;;;5041885;28;25059;-62
2023/10/31 00:45:26;;;;;;;66.75;59.85;;;;;;;;;;5040786;28;25077;-62
2023/10/31 00:47:52;;;;;;;66.60;60.65;;;;;;;;;;5044630;28;25149;-63
2023/10/31 00:50:18;;;;;;;66.40;59.97;;;;;;;;;;5044664;28;25053;-63
2023/10/31 00:52:44;;;;;;;66.00;59.78;;;;;;;;;;5040118;28;25102;-62
2023/10/31 00:55:10;;;;;;;68.70;62.40;;;;;;;;;;5045420;28;25080;-63
2023/10/31 00:57:36;;;;;;;73.13;65.95;;;;;;;;;;5047037;28;25071;-63
2023/10/31 01:00:02;;;;;;;72.90;66.05;;;;;;;;;;5039918;28;25084;-62
2023/10/31 01:02:28;;;;;;;75.35;67.53;;;;;;;;;;5048258;28;25149;-63
2023/10/31 01:04:54;;;;;;;72.05;65.00;;;;;;;;;;5044704;28;25062;-63
2023/10/31 01:07:20;;;;;;;75.68;67.60;;;;;;;;;;5037619;28;25085;-62
2023/10/31 01:09:46;;;;;;;77.15;68.20;;;;;;;;;;5044566;28;25092;-62
2023/10/31 01:12:12;;;;;;;73.47;65.63;;;;;;;;;;5036853;28;25068;-62
2023/10/31 01:14:38;;;;;;;71.95;64.43;;;;;;;;;;5044450;28;25136;-62
2023/10/31 01:17:04;;;;;;;70.88;63.33;;;;;;;;;;5043258;28;25052;-63
2023/10/31 01:19:30;;;;;;;66.28;59.95;;;;;;;;;;5043695;28;25066;-63
2023/10/31 01:21:56;;;;;;;75.03;66.18;;;;;;;;;;5045519;28;25072;-62
2023/10/31 01:24:23;;;;;;;74.22;66.10;;;;;;;;;;5047697;28;25096;-62
2023/10/31 01:26:49;;;;;;;77.63;66.15;;;;;;;;;;5045081;28;25070;-62
2023/10/31 01:29:15;;;;;;;75.07;67.25;;;;;;;;;;5045269;28;25071;-62
2023/10/31 01:31:44;;;;;;;77.28;67.95;;;;;;;;;;5044456;28;25066;-62
2023/10/31 01:34:10;;;;;;;75.28;67.75;;;;;;;;;;5040848;28;25107;-61
2023/10/31 01:36:36;;;;;;;87.88;70.25;;;;;;;;;;5045219;28;25092;-62
2023/10/31 01:39:01;;;;;;;89.72;75.35;;;;;;;;;;5046920;28;25108;-61
2023/10/31 01:41:27;;;;;;;93.18;78.78;;;;;;;;;;5043816;28;25062;-63
2023/10/31 01:43:53;;;;;;;97.85;80.28;;;;;;;;;;5041155;28;25053;-63
2023/10/31 01:46:19;;;;;;;89.00;78.18;;;;;;;;;;5038066;28;25065;-61
2023/10/31 01:48:45;;;;;;;88.72;77.35;;;;;;;;;;5043699;28;25201;-62
2023/10/31 01:51:11;;;;;;;79.03;70.22;;;;;;;;;;5044384;28;25165;-62
2023/10/31 01:53:38;;;;;;;72.38;62.90;;;;;;;;;;5039304;28;25092;-62
2023/10/31 01:56:04;;;;;;;60.60;54.47;;;;;;;;;;5039634;28;25075;-62
2023/10/31 01:58:31;;;;;;;52.88;47.42;;;;;;;;;;5045410;28;25068;-63
2023/10/31 02:00:57;;;;;;;50.55;45.72;;;;;;;;;;5041217;28;25080;-62
2023/10/31 02:03:23;;;;;;;47.38;43.28;;;;;;;;;;5044286;28;25072;-64
2023/10/31 02:05:51;;;;;;;48.47;44.22;;;;;;;;;;5042896;28;25062;-62
2023/10/31 02:08:17;;;;;;;43.88;40.13;;;;;;;;;;5043793;28;25076;-63
2023/10/31 02:10:43;;;;;;;44.70;40.65;;;;;;;;;;5046496;28;25049;-62
2023/10/31 02:13:12;;;;;;;41.45;37.70;;;;;;;;;;5045712;28;25144;-62
2023/10/31 02:15:38;;;;;;;39.15;35.83;;;;;;;;;;5044715;28;25059;-62
2023/10/31 02:18:04;;;;;;;37.78;34.67;;;;;;;;;;5044874;28;25091;-62
2023/10/31 02:20:30;;;;;;;37.90;34.65;;;;;;;;;;5045688;28;25093;-62
2023/10/31 02:22:56;;;;;;;37.60;34.47;;;;;;;;;;5042540;28;25073;-62
2023/10/31 02:25:22;;;;;;;38.92;35.53;;;;;;;;;;5041601;28;25048;-61
2023/10/31 02:27:48;;;;;;;38.55;34.83;;;;;;;;;;5043354;28;25057;-63
2023/10/31 02:30:14;;;;;;;36.88;33.72;;;;;;;;;;5044292;28;25097;-61
2023/10/31 02:32:41;;;;;;;38.30;35.13;;;;;;;;;;5041720;28;25165;-62
2023/10/31 02:35:08;;;;;;;39.75;36.40;;;;;;;;;;5043590;28;25122;-62
2023/10/31 02:37:34;;;;;;;37.75;34.38;;;;;;;;;;5036941;28;25060;-62
2023/10/31 02:40:00;;;;;;;36.78;33.88;;;;;;;;;;5046263;28;25067;-62
2023/10/31 02:42:26;;;;;;;36.45;33.20;;;;;;;;;;5042534;28;25074;-62
2023/10/31 02:44:52;;;;;;;37.58;33.90;;;;;;;;;;5039092;28;25095;-62
2023/10/31 02:47:18;;;;;;;37.50;34.30;;;;;;;;;;5042723;28;25133;-61
2023/10/31 02:49:44;;;;;;;36.67;33.45;;;;;;;;;;5044689;28;25065;-61
2023/10/31 02:52:10;;;;;;;35.78;32.45;;;;;;;;;;5041210;28;25153;-63
2023/10/31 02:54:36;;;;;;;34.08;31.42;;;;;;;;;;5045938;28;25091;-62
2023/10/31 02:57:03;;;;;;;25.45;23.55;;;;;;;;;;5044201;28;25080;-62
2023/10/31 02:59:29;;;;;;;26.05;23.10;;;;;;;;;;5041426;28;25077;-62
2023/10/31 03:01:57;;;;;;;24.63;22.65;;;;;;;;;;5040707;28;25056;-61
2023/10/31 03:04:23;;;;;;;24.55;22.45;;;;;;;;;;5040331;28;25053;-63
2023/10/31 03:06:49;;;;;;;22.20;20.58;;;;;;;;;;5044326;28;25060;-62
2023/10/31 03:09:16;;;;;;;22.80;21.20;;;;;;;;;;5041310;28;25086;-62
2023/10/31 03:11:42;;;;;;;23.20;21.27;;;;;;;;;;5043368;28;25127;-63
2023/10/31 03:14:08;;;;;;;21.23;19.73;;;;;;;;;;5044437;28;25055;-62
2023/10/31 03:16:34;;;;;;;22.42;20.15;;;;;;;;;;5043678;28;25082;-61
2023/10/31 03:19:00;;;;;;;21.58;19.70;;;;;;;;;;5041714;28;25165;-61
2023/10/31 03:21:26;;;;;;;22.75;20.42;;;;;;;;;;5041029;28;25086;-64
2023/10/31 03:23:55;;;;;;;21.67;20.08;;;;;;;;;;5041225;28;25059;-62
2023/10/31 03:26:21;;;;;;;22.83;20.55;;;;;;;;;;5040479;28;25168;-62
2023/10/31 03:28:48;;;;;;;20.98;19.58;;;;;;;;;;5042273;28;25076;-62
2023/10/31 03:31:14;;;;;;;20.80;19.50;;;;;;;;;;5040418;28;25060;-62
2023/10/31 03:33:41;;;;;;;20.80;19.30;;;;;;;;;;5045591;28;25127;-63
2023/10/31 03:36:08;;;;;;;21.42;19.80;;;;;;;;;;5047732;28;25104;-63
2023/10/31 03:38:34;;;;;;;21.67;19.98;;;;;;;;;;5045015;28;25044;-64
2023/10/31 03:41:00;;;;;;;22.02;20.27;;;;;;;;;;5045639;28;25072;-62
2023/10/31 03:43:26;;;;;;;22.02;20.52;;;;;;;;;;5048051;28;25061;-62
2023/10/31 03:45:52;;;;;;;22.45;20.10;;;;;;;;;;5043896;28;25060;-62
2023/10/31 03:48:18;;;;;;;22.88;20.88;;;;;;;;;;5044712;28;25070;-62
2023/10/31 03:50:44;;;;;;;22.45;20.40;;;;;;;;;;5042325;28;25074;-61
2023/10/31 03:53:10;;;;;;;22.83;20.70;;;;;;;;;;5042184;28;25099;-61
2023/10/31 03:55:36;;;;;;;22.60;20.58;;;;;;;;;;5043671;28;25096;-61
2023/10/31 03:58:02;;;;;;;23.27;20.90;;;;;;;;;;5043715;28;25091;-61
2023/10/31 04:00:28;;;;;;;21.20;19.33;;;;;;;;;;5042582;28;25167;-61
2023/10/31 04:02:54;;;;;;;19.83;18.40;;;;;;;;;;5045661;28;25060;-62
2023/10/31 04:05:20;;;;;;;21.65;19.55;;;;;;;;;;5044374;28;25072;-62
2023/10/31 04:07:47;;;;;;;21.08;19.40;;;;;;;;;;5045400;28;25103;-62
2023/10/31 04:10:13;;;;;;;21.63;19.92;;;;;;;;;;5042257;28;25054;-61
2023/10/31 04:12:39;;;;;;;21.65;19.50;;;;;;;;;;5036136;28;25053;-62
2023/10/31 04:15:05;;;;;;;22.65;20.83;;;;;;;;;;5045197;28;25053;-61
2023/10/31 04:17:31;;;;;;;20.27;18.65;;;;;;;;;;5047088;28;25149;-62
2023/10/31 04:19:57;;;;;;;20.42;18.92;;;;;;;;;;5046554;28;25073;-62
2023/10/31 04:22:23;;;;;;;20.60;18.85;;;;;;;;;;5047365;28;25147;-63
2023/10/31 04:24:49;;;;;;;21.98;20.00;;;;;;;;;;5049959;28;25086;-61
2023/10/31 04:27:15;;;;;;;21.88;19.98;;;;;;;;;;5047735;28;25121;-62
2023/10/31 04:29:41;;;;;;;22.17;19.77;;;;;;;;;;5046673;28;25086;-62
2023/10/31 04:32:07;;;;;;;20.25;18.35;;;;;;;;;;5047443;28;25057;-62
2023/10/31 04:34:33;;;;;;;18.50;15.25;;;;;;;;;;5046774;28;25162;-61
2023/10/31 04:36:59;;;;;;;16.10;14.43;;;;;;;;;;5046619;28;25073;-61
2023/10/31 04:39:25;;;;;;;17.05;15.88;;;;;;;;;;5045105;28;25072;-63
2023/10/31 04:41:51;;;;;;;18.00;16.80;;;;;;;;;;5043359;28;25054;-63
2023/10/31 04:44:17;;;;;;;18.50;17.25;;;;;;;;;;5046366;28;25055;-64
2023/10/31 04:46:43;;;;;;;16.75;15.18;;;;;;;;;;5046115;28;25077;-62
2023/10/31 04:49:09;;;;;;;16.30;15.13;;;;;;;;;;5049639;28;25094;-61
2023/10/31 04:51:36;;;;;;;18.73;17.25;;;;;;;;;;5047062;28;25066;-61
2023/10/31 04:54:02;;;;;;;18.35;17.08;;;;;;;;;;5048666;28;25059;-61
2023/10/31 04:56:28;;;;;;;18.50;17.10;;;;;;;;;;5044100;28;25081;-62
2023/10/31 04:58:54;;;;;;;18.45;16.90;;;;;;;;;;5046349;28;25075;-62
2023/10/31 05:01:20;;;;;;;18.60;17.20;;;;;;;;;;5043625;28;25079;-61
2023/10/31 05:03:46;;;;;;;18.33;16.92;;;;;;;;;;5047189;28;25063;-61
2023/10/31 05:06:12;;;;;;;18.95;17.75;;;;;;;;;;5043376;28;25157;-61
2023/10/31 05:08:38;;;;;;;19.25;18.00;;;;;;;;;;5046805;28;25060;-62
2023/10/31 05:11:04;;;;;;;18.45;17.23;;;;;;;;;;5050219;28;25059;-62
2023/10/31 05:13:30;;;;;;;19.67;18.20;;;;;;;;;;5048399;28;25076;-61
2023/10/31 05:15:56;;;;;;;19.85;18.38;;;;;;;;;;5048121;28;25063;-62
2023/10/31 05:18:23;;;;;;;19.45;18.13;;;;;;;;;;5045373;28;25070;-61
2023/10/31 05:20:49;;;;;;;19.63;18.23;;;;;;;;;;5046841;28;25083;-62
2023/10/31 05:23:15;;;;;;;19.80;18.30;;;;;;;;;;5047336;28;25136;-61
2023/10/31 05:25:41;;;;;;;21.05;19.73;;;;;;;;;;5045322;28;25061;-62
2023/10/31 05:28:07;;;;;;;21.73;20.35;;;;;;;;;;5045749;28;25121;-61
2023/10/31 05:30:33;;;;;;;22.00;20.67;;;;;;;;;;5046742;28;25076;-61
2023/10/31 05:32:59;;;;;;;22.92;21.60;;;;;;;;;;5045506;28;25131;-61
2023/10/31 05:35:25;;;;;;;23.40;21.65;;;;;;;;;;5045763;28;25063;-61
2023/10/31 05:37:51;;;;;;;23.25;21.85;;;;;;;;;;5038514;28;25108;-60
2023/10/31 05:40:17;;;;;;;25.42;24.02;;;;;;;;;;5045387;28;25161;-60
2023/10/31 05:42:43;;;;;;;25.10;23.25;;;;;;;;;;5045597;28;25160;-61
2023/10/31 05:45:09;;;;;;;27.42;25.23;;;;;;;;;;5049053;28;25179;-61
2023/10/31 05:47:35;;;;;;;28.38;26.58;;;;;;;;;;5044064;28;25074;-62
2023/10/31 05:50:01;;;;;;;30.58;28.00;;;;;;;;;;5045234;28;25114;-60
2023/10/31 05:52:32;;;;;;;29.80;27.67;;;;;;;;;;5045925;28;25110;-63
2023/10/31 05:54:58;;;;;;;28.48;26.48;;;;;;;;;;5041164;28;25048;-61
2023/10/31 05:57:24;;;;;;;27.85;25.88;;;;;;;;;;5049902;28;25086;-60
2023/10/31 05:59:50;;;;;;;27.40;25.80;;;;;;;;;;5048738;28;25131;-60
2023/10/31 06:02:16;;;;;;;26.80;25.20;;;;;;;;;;5063887;28;25092;-60
2023/10/31 06:04:42;;;;;;;26.45;24.85;;;;;;;;;;5038030;28;25178;-61
2023/10/31 06:07:08;;;;;;;26.45;24.67;;;;;;;;;;5043952;28;25062;-62
2023/10/31 06:09:34;;;;;;;29.58;27.38;;;;;;;;;;5040050;28;25071;-61
2023/10/31 06:12:00;;;;;;;28.67;26.83;;;;;;;;;;5045937;28;25071;-61
2023/10/31 06:14:26;;;;;;;30.60;28.70;;;;;;;;;;5045650;28;25077;-62
2023/10/31 06:16:53;;;;;;;30.60;28.60;;;;;;;;;;5045263;28;25055;-61
2023/10/31 06:19:19;;;;;;;31.60;29.27;;;;;;;;;;5050334;28;25065;-61
2023/10/31 06:21:45;;;;;;;32.08;29.83;;;;;;;;;;5044235;28;25070;-61
2023/10/31 06:24:11;;;;;;;34.80;31.92;;;;;;;;;;5045481;28;25062;-61
2023/10/31 06:26:37;;;;;;;36.25;33.67;;;;;;;;;;5045574;28;25060;-61
2023/10/31 06:29:03;;;;;;;36.22;33.35;;;;;;;;;;5051830;28;25072;-62
2023/10/31 06:31:29;;;;;;;38.28;35.35;;;;;;;;;;5044682;28;25175;-61
2023/10/31 06:33:55;;;;;;;39.17;36.08;;;;;;;;;;5044861;28;25160;-60
2023/10/31 06:36:21;;;;;;;42.03;38.63;;;;;;;;;;5045772;28;25104;-61
2023/10/31 06:38:47;;;;;;;44.55;40.75;;;;;;;;;;5043804;28;25081;-62
2023/10/31 06:41:13;;;;;;;41.35;37.95;;;;;;;;;;5044586;28;25071;-62
2023/10/31 06:43:39;;;;;;;44.80;40.30;;;;;;;;;;5044227;28;25076;-61
2023/10/31 06:46:05;;;;;;;42.60;38.78;;;;;;;;;;5045842;28;25139;-61
2023/10/31 06:48:31;;;;;;;35.50;32.55;;;;;;;;;;5050276;28;25115;-63
2023/10/31 06:50:57;;;;;;;38.75;35.20;;;;;;;;;;5043693;28;25126;-62
2023/10/31 06:53:23;;;;;;;37.25;33.63;;;;;;;;;;5044741;28;25057;-62
2023/10/31 06:55:49;;;;;;;34.58;31.15;;;;;;;;;;5047731;28;25114;-61
2023/10/31 06:58:15;;;;;;;34.83;31.85;;;;;;;;;;5044090;28;25078;-63
2023/10/31 07:00:41;;;;;;;35.60;32.22;;;;;;;;;;5045318;28;25060;-61
2023/10/31 07:03:09;;;;;;;35.60;32.58;;;;;;;;;;5040281;28;25060;-60
2023/10/31 07:05:38;;;;;;;35.53;32.45;;;;;;;;;;5051645;28;25117;-61
2023/10/31 07:08:04;;;;;;;32.53;29.95;;;;;;;;;;5061193;28;25099;-61
2023/10/31 07:10:30;;;;;;;35.97;32.17;;;;;;;;;;5052583;28;25535;-61
2023/10/31 07:12:58;;;;;;;35.33;32.33;;;;;;;;;;5045188;28;25095;-61
2023/10/31 07:15:24;;;;;;;34.90;32.17;;;;;;;;;;5043317;28;25047;-61
2023/10/31 07:17:50;;;;;;;41.42;37.65;;;;;;;;;;5049968;28;25069;-61
2023/10/31 07:20:16;;;;;;;41.60;37.72;;;;;;;;;;5044357;28;25160;-62
2023/10/31 07:22:42;;;;;;;42.40;38.83;;;;;;;;;;5044284;28;25147;-60
2023/10/31 07:25:09;;;;;;;40.08;36.65;;;;;;;;;;5044599;28;25095;-61
2023/10/31 07:27:35;;;;;;;44.85;40.58;;;;;;;;;;5043462;28;25046;-62
2023/10/31 07:30:01;;;;;;;48.30;43.38;;;;;;;;;;5043355;28;25055;-60
2023/10/31 07:32:27;;;;;;;47.95;42.90;;;;;;;;;;5039422;28;25064;-62
2023/10/31 07:34:53;;;;;;;47.72;43.25;;;;;;;;;;5043307;28;25053;-60
2023/10/31 07:37:19;;;;;;;45.95;41.47;;;;;;;;;;5059692;28;25111;-61
2023/10/31 07:39:45;;;;;;;48.17;43.42;;;;;;;;;;5042051;28;25130;-61
2023/10/31 07:42:11;;;;;;;47.60;43.08;;;;;;;;;;5044417;28;25079;-60
2023/10/31 07:44:37;;;;;;;52.88;47.50;;;;;;;;;;5043227;28;25148;-61
2023/10/31 07:47:03;;;;;;;55.47;49.50;;;;;;;;;;5044977;28;25057;-61
2023/10/31 07:49:29;;;;;;;51.63;46.40;;;;;;;;;;5045361;28;25063;-60
2023/10/31 07:51:55;;;;;;;57.10;49.97;;;;;;;;;;5050751;28;25056;-61
2023/10/31 07:54:21;;;;;;;57.65;51.75;;;;;;;;;;5049826;28;25048;-61
2023/10/31 07:56:47;;;;;;;59.55;53.00;;;;;;;;;;5048999;28;25143;-61
2023/10/31 07:59:13;;;;;;;61.50;54.05;;;;;;;;;;5048562;28;25072;-61
2023/10/31 08:01:39;;;;;;;58.38;52.10;;;;;;;;;;5042911;28;25062;-61
2023/10/31 08:04:05;;;;;;;55.45;49.55;;;;;;;;;;5050159;28;25080;-63
2023/10/31 08:06:31;;;;;;;52.80;47.20;;;;;;;;;;5047244;28;25062;-61
2023/10/31 08:08:57;;;;;;;57.67;46.03;;;;;;;;;;5050414;28;25106;-61
2023/10/31 08:11:23;;;;;;;46.40;41.80;;;;;;;;;;5049380;28;25087;-61
2023/10/31 08:13:49;;;;;;;48.35;43.22;;;;;;;;;;5047883;28;25083;-62
2023/10/31 08:16:19;;;;;;;46.78;41.97;;;;;;;;;;5043332;28;25101;-61
2023/10/31 08:18:45;;;;;;;44.40;39.67;;;;;;;;;;5048828;28;25094;-60
2023/10/31 08:21:11;;;;;;;44.97;40.22;;;;;;;;;;5050230;28;25050;-62
2023/10/31 08:23:37;;;;;;;45.25;41.05;;;;;;;;;;5049608;28;25067;-60
2023/10/31 08:26:04;;;;;;;47.15;40.28;;;;;;;;;;5048501;28;25070;-61
2023/10/31 08:28:30;;;;;;;43.67;39.38;;;;;;;;;;5054888;28;25149;-62
2023/10/31 08:30:56;;;;;;;46.47;40.15;;;;;;;;;;5045443;28;25513;-62
2023/10/31 08:33:22;;;;;;;42.05;37.70;;;;;;;;;;5048829;28;25107;-61
2023/10/31 08:35:48;;;;;;;42.03;38.20;;;;;;;;;;5044345;28;25149;-61
2023/10/31 08:38:14;;;;;;;45.15;40.53;;;;;;;;;;5048109;28;25047;-64
2023/10/31 08:40:41;;;;;;;43.97;39.67;;;;;;;;;;5048432;28;25083;-60
2023/10/31 08:43:07;;;;;;;43.20;39.35;;;;;;;;;;5045894;28;25072;-61
2023/10/31 08:45:33;;;;;;;47.42;42.42;;;;;;;;;;5043918;28;25121;-61
2023/10/31 08:48:00;;;;;;;42.72;38.35;;;;;;;;;;5047287;28;25053;-62
2023/10/31 08:50:26;;;;;;;42.28;37.90;;;;;;;;;;5049870;28;25072;-61
2023/10/31 08:52:52;;;;;;;41.75;37.70;;;;;;;;;;5047224;28;25098;-61
2023/10/31 08:55:18;;;;;;;40.78;37.15;;;;;;;;;;5047014;28;25103;-62
2023/10/31 08:57:44;;;;;;;39.58;36.08;;;;;;;;;;5048416;28;25161;-61
2023/10/31 09:00:10;;;;;;;42.05;38.05;;;;;;;;;;5052312;28;25106;-61
2023/10/31 09:02:36;;;;;;;40.53;36.58;;;;;;;;;;5047740;28;25122;-61
2023/10/31 09:05:02;;;;;;;39.03;35.20;;;;;;;;;;5050554;28;25092;-62
2023/10/31 09:07:28;;;;;;;37.92;34.25;;;;;;;;;;5045810;28;25062;-61
2023/10/31 09:09:54;;;;;;;39.88;36.30;;;;;;;;;;5047021;28;25067;-61
2023/10/31 09:12:20;;;;;;;38.58;34.92;;;;;;;;;;5046291;28;25059;-61
2023/10/31 09:14:46;;;;;;;39.45;35.33;;;;;;;;;;5041688;28;25060;-61
2023/10/31 09:17:12;;;;;;;39.47;35.97;;;;;;;;;;5047349;28;25074;-61
2023/10/31 09:19:38;;;;;;;39.53;35.50;;;;;;;;;;5045049;28;25065;-61
2023/10/31 09:22:04;;;;;;;41.10;37.13;;;;;;;;;;5046725;28;25080;-60
2023/10/31 09:24:30;;;;;;;41.75;37.47;;;;;;;;;;5044889;28;25063;-62
2023/10/31 09:26:56;;;;;;;41.17;37.50;;;;;;;;;;5049015;28;25071;-61
2023/10/31 09:29:22;;;;;;;40.53;36.78;;;;;;;;;;5045543;28;25058;-61
2023/10/31 09:31:48;;;;;;;39.92;36.30;;;;;;;;;;5046782;28;25133;-60
2023/10/31 09:34:14;;;;;;;41.75;37.72;;;;;;;;;;5044361;28;25135;-60
2023/10/31 09:36:40;;;;;;;44.13;40.05;;;;;;;;;;5047495;28;25103;-62
2023/10/31 09:39:06;;;;;;;43.90;39.78;;;;;;;;;;5051699;28;25098;-61
2023/10/31 09:41:32;;;;;;;47.83;42.35;;;;;;;;;;5048095;28;25047;-61
2023/10/31 09:43:59;;;;;;;45.10;41.30;;;;;;;;;;5053843;28;25073;-61
2023/10/31 09:46:25;;;;;;;44.78;40.80;;;;;;;;;;5051686;28;25158;-60
2023/10/31 09:48:51;;;;;;;44.67;40.75;;;;;;;;;;5043589;28;25079;-61
2023/10/31 09:51:18;;;;;;;45.15;41.17;;;;;;;;;;5045602;28;25046;-61
2023/10/31 09:53:45;;;;;;;47.83;43.30;;;;;;;;;;5046208;28;25058;-61
2023/10/31 09:56:11;;;;;;;51.70;46.38;;;;;;;;;;5039199;28;25132;-61
2023/10/31 09:58:39;;;;;;;54.35;48.53;;;;;;;;;;5046071;28;25202;-61
2023/10/31 10:01:05;;;;;;;53.38;48.38;;;;;;;;;;5043598;28;25063;-62
2023/10/31 10:03:31;;;;;;;60.03;53.20;;;;;;;;;;5050431;28;25080;-62
2023/10/31 10:05:58;;;;;;;58.10;51.63;;;;;;;;;;5046967;28;25165;-60
2023/10/31 10:08:24;;;;;;;60.47;54.03;;;;;;;;;;5048283;28;25065;-61
2023/10/31 10:10:51;;;;;;;59.50;53.28;;;;;;;;;;5046336;28;25076;-61
2023/10/31 10:13:26;;;;;;;62.85;56.40;;;;;;;;;;5042806;28;25047;-61
2023/10/31 10:15:53;;;;;;;61.55;54.67;;;;;;;;;;5042265;28;25074;-60
2023/10/31 10:18:29;;;;;;;64.63;56.30;;;;;;;;;;5045822;28;25055;-60
2023/10/31 10:20:59;;;;;;;76.25;58.95;;;;;;;;;;5045560;28;25060;-59
2023/10/31 10:23:25;;;;;;;74.90;58.20;;;;;;;;;;5048694;28;25143;-60
2023/10/31 10:25:51;;;;;;;64.45;56.67;;;;;;;;;;5043735;28;25064;-60
2023/10/31 10:28:20;;;;;;;66.05;55.88;;;;;;;;;;5043465;28;25117;-61
2023/10/31 10:30:47;;;;;;;64.22;56.05;;;;;;;;;;5038726;28;25104;-61
2023/10/31 10:33:13;;;;;;;77.15;58.85;;;;;;;;;;5049368;28;25065;-60
2023/10/31 10:35:39;;;;;;;69.55;56.40;;;;;;;;;;5042033;28;25114;-61
2023/10/31 10:38:10;;;;;;;69.32;58.63;;;;;;;;;;5044922;28;25158;-60
2023/10/31 10:40:37;;;;;;;78.85;59.70;;;;;;;;;;5038110;28;25104;-60
2023/10/31 10:43:08;;;;;;;67.38;59.97;;;;;;;;;;5042944;28;25110;-60
2023/10/31 10:45:35;;;;;;;81.47;61.30;;;;;;;;;;5044435;28;25046;-61
2023/10/31 10:48:06;;;;;;;81.95;62.33;;;;;;;;;;5044783;28;25080;-60
2023/10/31 10:50:35;;;;;;;70.78;62.63;;;;;;;;;;5041871;28;25088;-60
2023/10/31 10:53:09;;;;;;;70.53;62.90;;;;;;;;;;5040228;28;25122;-61
2023/10/31 10:55:39;;;;;;;73.72;61.58;;;;;;;;;;5044978;28;25162;-62
2023/10/31 10:58:07;;;;;;;72.38;62.70;;;;;;;;;;5044200;28;25155;-60
2023/10/31 11:00:34;;;;;;;70.72;62.38;;;;;;;;;;5045648;28;25054;-60
2023/10/31 11:03:01;;;;;;;65.35;58.35;;;;;;;;;;5045371;28;25140;-59
2023/10/31 11:05:28;;;;;;;64.78;57.80;;;;;;;;;;5040922;28;25069;-60
2023/10/31 11:07:57;;;;;;;66.22;59.05;;;;;;;;;;5040707;28;25075;-60
2023/10/31 11:10:23;;;;;;;64.97;58.47;;;;;;;;;;5044766;28;25062;-60
2023/10/31 11:12:50;;;;;;;66.32;59.38;;;;;;;;;;5048535;28;25070;-60
2023/10/31 11:15:18;;;;;;;65.55;58.78;;;;;;;;;;5046061;28;25069;-60
2023/10/31 11:17:45;;;;;;;63.45;56.55;;;;;;;;;;5043620;28;25134;-60
2023/10/31 11:20:14;;;;;;;65.55;58.70;;;;;;;;;;5044934;28;25059;-60
2023/10/31 11:22:44;;;;;;;64.10;57.50;;;;;;;;;;5045529;28;25079;-60
2023/10/31 11:25:14;;;;;;;63.08;56.70;;;;;;;;;;5040999;28;25045;-60
2023/10/31 11:27:43;;;;;;;64.32;57.65;;;;;;;;;;5044648;28;25157;-59
2023/10/31 11:30:20;;;;;;;60.20;54.10;;;;;;;;;;5045441;28;25086;-61
2023/10/31 11:32:52;;;;;;;67.07;59.97;;;;;;;;;;5044901;28;25081;-60
2023/10/31 11:35:19;;;;;;;69.90;62.73;;;;;;;;;;5026593;28;25110;-61
2023/10/31 11:37:47;;;;;;;73.95;64.13;;;;;;;;;;5030068;28;25058;-60
2023/10/31 11:40:16;;;;;;;79.53;66.00;;;;;;;;;;5037392;28;25126;-60
2023/10/31 11:42:43;;;;;;;80.70;66.28;;;;;;;;;;5041117;28;25052;-60
2023/10/31 11:45:09;;;;;;;71.93;62.80;;;;;;;;;;5036892;28;25069;-60
2023/10/31 11:47:48;;;;;;;65.53;58.55;;;;;;;;;;5039441;28;25059;-60
2023/10/31 11:50:14;;;;;;;65.10;58.05;;;;;;;;;;5036161;28;25180;-61
2023/10/31 11:52:40;;;;;;;73.53;60.38;;;;;;;;;;5040786;28;25052;-59
2023/10/31 11:55:12;;;;;;;68.32;61.17;;;;;;;;;;5042638;28;25072;-60
2023/10/31 11:57:39;;;;;;;70.82;63.10;;;;;;;;;;5039559;28;25077;-61
2023/10/31 12:00:07;;;;;;;71.72;63.58;;;;;;;;;;5039733;28;25157;-61
2023/10/31 12:02:33;;;;;;;79.88;70.25;;;;;;;;;;5039397;28;25103;-61
2023/10/31 12:05:09;;;;;;;79.55;66.88;;;;;;;;;;5041370;28;25133;-60
2023/10/31 12:07:44;;;;;;;71.75;64.05;;;;;;;;;;5042336;28;25075;-60
2023/10/31 12:10:10;;;;;;;73.20;64.95;;;;;;;;;;5040886;28;25068;-61
2023/10/31 12:12:36;;;;;;;71.88;64.38;;;;;;;;;;5041896;28;25072;-61
2023/10/31 12:15:08;;;;;;;71.97;64.65;;;;;;;;;;5038600;28;25048;-61
2023/10/31 12:17:34;;;;;;;;;;;;;;;;;;5040441;28;25142;-60
2023/10/31 12:20:04;;;;;;;69.38;62.03;;;;;;;;;;5041874;28;25063;-61
2023/10/31 12:22:30;;;;;;;64.43;58.08;;;;;;;;;;5037488;28;25057;-60
2023/10/31 12:25:06;;;;;;;62.15;55.80;;;;;;;;;;5038751;28;25124;-60
2023/10/31 12:27:44;;;;;;;61.45;55.50;;;;;;;;;;5038448;28;25062;-61
2023/10/31 12:30:11;;;;;;;57.10;51.80;;;;;;;;;;5038835;28;25159;-61
2023/10/31 12:32:37;;;;;;;59.40;54.05;;;;;;;;;;5041693;28;25069;-60
2023/10/31 12:35:03;;;;;;;60.85;55.40;;;;;;;;;;5038270;28;25065;-59
2023/10/31 12:37:29;;;;;;;55.97;51.08;;;;;;;;;;5039431;28;25070;-61
2023/10/31 12:39:56;;;;;;;59.03;53.60;;;;;;;;;;5044537;28;25051;-61
2023/10/31 12:42:28;;;;;;;60.60;55.28;;;;;;;;;;5040247;28;25067;-61
2023/10/31 12:44:54;;;;;;;;;;;;;;;;;;5040321;28;25086;-61
2023/10/31 12:47:24;;;;;;;55.63;50.65;;;;;;;;;;5041953;28;24111;-60
2023/10/31 12:50:05;;;;;;;53.78;49.30;;;;;;;;;;5043146;28;25052;-59
2023/10/31 12:52:45;;;;;;;54.72;49.58;;;;;;;;;;5040596;28;25072;-61
2023/10/31 12:55:15;;;;;;;54.58;49.60;;;;;;;;;;5043679;28;25052;-61
2023/10/31 12:57:41;;;;;;;54.25;48.83;;;;;;;;;;5045003;28;25097;-60
2023/10/31 13:00:10;;;;;;;54.80;50.05;;;;;;;;;;5043586;28;25063;-61
2023/10/31 13:02:36;;;;;;;53.40;48.97;;;;;;;;;;5046607;28;25055;-61
2023/10/31 13:05:13;;;;;;;47.97;44.05;;;;;;;;;;5044719;28;25090;-60
2023/10/31 13:07:39;;;;;;;56.78;52.15;;;;;;;;;;5041807;28;25067;-61
2023/10/31 13:10:07;;;;;;;59.05;53.90;;;;;;;;;;5045983;28;25094;-61
2023/10/31 13:12:33;;;;;;;61.53;56.42;;;;;;;;;;5031335;28;25133;-60
2023/10/31 13:15:01;;;;;;;62.03;57.10;;;;;;;;;;5047412;28;25155;-61
2023/10/31 13:17:28;;;;;;;59.90;54.78;;;;;;;;;;5046122;28;25151;-61
2023/10/31 13:19:54;;;;;;;58.75;53.28;;;;;;;;;;5048870;28;25076;-61
2023/10/31 13:22:20;;;;;;;59.97;54.67;;;;;;;;;;5046754;28;25069;-59
2023/10/31 13:24:46;;;;;;;58.08;52.90;;;;;;;;;;5041494;28;25143;-60
2023/10/31 13:27:16;;;;;;;56.58;51.67;;;;;;;;;;5046694;28;25060;-60
2023/10/31 13:29:42;;;;;;;57.67;52.17;;;;;;;;;;5042652;28;25134;-61
2023/10/31 13:32:09;;;;;;;59.85;54.08;;;;;;;;;;5045751;28;25154;-61
2023/10/31 13:34:34;;;;;;;57.08;52.00;;;;;;;;;;5043397;28;25093;-60
2023/10/31 13:37:02;;;;;;;56.00;50.67;;;;;;;;;;5043851;28;25138;-62
2023/10/31 13:39:28;;;;;;;53.47;49.05;;;;;;;;;;5038124;28;25064;-61
2023/10/31 13:41:54;;;;;;;61.47;56.05;;;;;;;;;;5042939;28;25134;-61
2023/10/31 13:44:20;;;;;;;62.03;57.03;;;;;;;;;;5041520;28;25103;-61
2023/10/31 13:46:46;;;;;;;63.83;58.60;;;;;;;;;;5043633;28;25050;-61
2023/10/31 13:49:13;;;;;;;59.28;54.30;;;;;;;;;;5041799;28;25077;-61
2023/10/31 13:51:39;;;;;;;56.88;52.35;;;;;;;;;;5042472;28;25084;-60
2023/10/31 13:54:06;;;;;;;57.72;52.88;;;;;;;;;;5043271;28;25070;-61
2023/10/31 13:56:33;;;;;;;81.75;75.65;;;;;;;;;;5041065;28;25067;-60
2023/10/31 13:58:59;;;;;;;79.82;74.07;;;;;;;;;;5043152;28;25073;-61
2023/10/31 14:01:25;;;;;;;85.30;77.20;;;;;;;;;;5040073;28;25075;-61
2023/10/31 14:03:51;;;;;;;81.53;75.15;;;;;;;;;;5039267;28;25468;-60
2023/10/31 14:06:17;;;;;;;82.55;76.70;;;;;;;;;;5043784;28;25085;-61
2023/10/31 14:08:43;;;;;;;89.13;81.93;;;;;;;;;;5043939;28;25071;-61
2023/10/31 14:11:09;;;;;;;98.43;90.90;;;;;;;;;;5041227;28;25151;-60
2023/10/31 14:13:38;;;;;;;111.10;102.53;;;;;;;;;;5042421;28;25062;-61
2023/10/31 14:16:05;;;;;;;104.13;96.32;;;;;;;;;;5036595;28;25066;-62